createdAt,value
2019-01-19T00:01:56.182Z,-2.63
2019-01-19T00:05:20.350Z,-2.67
2019-01-19T00:08:34.415Z,-2.72
2019-01-19T00:11:45.781Z,-2.76
2019-01-19T00:14:53.513Z,-2.74
2019-01-19T00:17:50.495Z,-2.75
2019-01-19T00:20:51.644Z,-2.76
2019-01-19T00:23:57.818Z,-2.78
2019-01-19T00:27:22.341Z,-2.78
2019-01-19T00:30:36.793Z,-2.83
2019-01-19T00:33:40.875Z,-2.79
2019-01-19T00:36:26.776Z,-2.76
2019-01-19T00:39:49.524Z,-2.74
2019-01-19T00:42:38.280Z,-2.71
2019-01-19T00:46:00.910Z,-2.70
2019-01-19T00:48:43.396Z,-2.72
2019-01-19T00:51:57.519Z,-2.71
2019-01-19T00:54:44.165Z,-2.62
2019-01-19T00:57:29.476Z,-2.53
2019-01-19T01:00:05.091Z,-2.51
2019-01-19T01:03:21.444Z,-2.49
2019-01-19T01:06:45.758Z,-2.53
2019-01-19T01:10:08.066Z,-2.56
2019-01-19T01:13:17.143Z,-2.56
2019-01-19T01:15:57.169Z,-2.48
2019-01-19T01:19:15.475Z,-2.39
2019-01-19T01:22:04.084Z,-2.36
2019-01-19T01:25:01.123Z,-2.42
2019-01-19T01:28:17.616Z,-2.43
2019-01-19T01:31:08.061Z,-2.51
2019-01-19T01:34:20.165Z,-2.51
2019-01-19T01:36:58.997Z,-2.66
2019-01-19T01:39:54.179Z,-2.61
2019-01-19T01:43:24.472Z,-2.66
2019-01-19T01:46:21.078Z,-2.77
2019-01-19T01:49:33.852Z,-2.79
2019-01-19T01:52:49.054Z,-2.83
2019-01-19T01:55:46.817Z,-2.87
2019-01-19T01:58:46.361Z,-2.92
2019-01-19T02:01:45.891Z,-2.98
2019-01-19T02:05:05.844Z,-2.96
2019-01-19T02:08:07.430Z,-3.01
2019-01-19T02:11:00.468Z,-3.05
2019-01-19T02:14:12.155Z,-3.08
2019-01-19T02:17:17.132Z,-3.04
2019-01-19T02:20:33.703Z,-3.05
2019-01-19T02:23:28.892Z,-3.11
2019-01-19T02:26:35.956Z,-3.14
2019-01-19T02:29:48.226Z,-3.22
2019-01-19T02:33:02.509Z,-3.20
2019-01-19T02:36:01.571Z,-3.20
2019-01-19T02:38:53.217Z,-3.26
2019-01-19T02:42:20.720Z,-3.25
2019-01-19T02:45:18.138Z,-3.21
2019-01-19T02:48:24.161Z,-3.21
2019-01-19T02:51:03.549Z,-3.18
2019-01-19T02:54:33.632Z,-3.17
2019-01-19T02:58:03.083Z,-3.18
2019-01-19T03:01:16.869Z,-3.15
2019-01-19T03:04:17.196Z,-3.15
2019-01-19T03:07:12.472Z,-3.19
2019-01-19T03:10:17.653Z,-3.20
2019-01-19T03:13:13.655Z,-3.18
2019-01-19T03:16:14.152Z,-3.14
2019-01-19T03:19:44.335Z,-3.11
2019-01-19T03:23:01.025Z,-3.24
2019-01-19T03:26:06.598Z,-3.22
2019-01-19T03:29:01.069Z,-3.25
2019-01-19T03:32:12.066Z,-3.26
2019-01-19T03:35:14.401Z,-3.26
2019-01-19T03:38:34.820Z,-3.23
2019-01-19T03:41:46.447Z,-3.18
2019-01-19T03:44:57.670Z,-3.14
2019-01-19T03:48:05.840Z,-3.13
2019-01-19T03:51:18.514Z,-3.13
2019-01-19T03:54:24.454Z,-3.11
2019-01-19T03:57:23.545Z,-3.08
2019-01-19T04:00:33.909Z,-3.07
2019-01-19T04:04:02.493Z,-3.06
2019-01-19T04:06:56.325Z,-3.05
2019-01-19T04:09:51.579Z,-3.04
2019-01-19T04:13:02.780Z,-3.05
2019-01-19T04:16:13.968Z,-3.04
2019-01-19T04:19:22.287Z,-3.04
2019-01-19T04:22:23.242Z,-3.02
2019-01-19T04:25:22.069Z,-3.03
2019-01-19T04:27:53.266Z,-3.06
2019-01-19T04:30:24.563Z,-3.08
2019-01-19T04:32:55.712Z,-3.11
2019-01-19T04:35:27.031Z,-3.22
2019-01-19T04:37:58.639Z,-3.32
2019-01-19T04:40:29.761Z,-3.36
2019-01-19T04:43:03.449Z,-3.38
2019-01-19T04:45:34.769Z,-3.46
2019-01-19T04:48:06.176Z,-3.51
2019-01-19T04:50:37.450Z,-3.56
2019-01-19T04:53:08.590Z,-3.56
2019-01-19T04:55:40.131Z,-3.58
2019-01-19T04:58:11.591Z,-3.61
2019-01-19T05:00:43.111Z,-3.69
2019-01-19T05:03:14.280Z,-3.80
2019-01-19T05:05:45.390Z,-3.78
2019-01-19T05:08:16.477Z,-3.79
2019-01-19T05:10:47.580Z,-3.75
2019-01-19T05:13:19.512Z,-3.75
2019-01-19T05:15:50.787Z,-3.87
2019-01-19T05:18:24.899Z,-4.00
2019-01-19T05:20:56.292Z,-4.05
2019-01-19T05:23:28.002Z,-4.14
2019-01-19T05:25:59.810Z,-4.17
2019-01-19T05:28:31.097Z,-4.16
2019-01-19T05:31:02.797Z,-4.24
2019-01-19T05:33:34.102Z,-4.29
2019-01-19T05:36:06.459Z,-4.34
2019-01-19T05:38:37.523Z,-4.40
2019-01-19T05:41:08.703Z,-4.45
2019-01-19T05:43:39.885Z,-4.41
2019-01-19T05:46:11.017Z,-4.35
2019-01-19T05:48:42.270Z,-4.32
2019-01-19T05:51:13.399Z,-4.26
2019-01-19T05:53:44.501Z,-4.26
2019-01-19T05:56:15.739Z,-4.24
2019-01-19T05:58:46.819Z,-4.20
2019-01-19T06:01:17.937Z,-4.17
2019-01-19T06:03:50.039Z,-4.15
2019-01-19T06:06:21.611Z,-4.11
2019-01-19T06:08:52.694Z,-4.09
2019-01-19T06:11:24.049Z,-4.03
2019-01-19T06:13:55.280Z,-4.10
2019-01-19T06:16:26.495Z,-4.14
2019-01-19T06:18:59.063Z,-4.16
2019-01-19T06:21:33.685Z,-4.13
2019-01-19T06:24:05.050Z,-4.11
2019-01-19T06:26:36.472Z,-4.08
2019-01-19T06:29:07.766Z,-4.08
2019-01-19T06:31:39.054Z,-4.24
2019-01-19T06:34:10.399Z,-4.24
2019-01-19T06:36:41.882Z,-4.22
2019-01-19T06:39:13.425Z,-4.23
2019-01-19T06:41:44.653Z,-4.27
2019-01-19T06:44:15.677Z,-4.33
2019-01-19T06:46:46.962Z,-4.31
2019-01-19T06:49:17.954Z,-4.32
2019-01-19T06:51:49.214Z,-4.31
2019-01-19T06:54:20.894Z,-4.33
2019-01-19T06:56:52.026Z,-4.35
2019-01-19T06:59:23.216Z,-4.36
2019-01-19T07:01:54.379Z,-4.39
2019-01-19T07:04:25.590Z,-4.36
2019-01-19T07:07:02.594Z,-4.32
2019-01-19T07:09:31.510Z,-4.28
2019-01-19T07:12:03.430Z,-4.27
2019-01-19T07:14:34.674Z,-4.27
2019-01-19T07:17:06.579Z,-4.22
2019-01-19T07:19:39.099Z,-4.18
2019-01-19T07:22:10.529Z,-4.18
2019-01-19T07:24:41.755Z,-4.11
2019-01-19T07:27:12.991Z,-4.06
2019-01-19T07:29:44.169Z,-4.00
2019-01-19T07:32:15.666Z,-3.94
2019-01-19T07:34:46.765Z,-3.90
2019-01-19T07:37:17.923Z,-3.97
2019-01-19T07:39:50.477Z,-4.02
2019-01-19T07:42:22.954Z,-3.95
2019-01-19T07:44:54.203Z,-3.93
2019-01-19T07:47:26.271Z,-3.88
2019-01-19T07:49:57.842Z,-3.84
2019-01-19T07:52:28.837Z,-3.74
2019-01-19T07:55:00.036Z,-3.71
2019-01-19T07:57:31.558Z,-3.64
2019-01-19T08:00:02.785Z,-3.59
2019-01-19T08:02:34.252Z,-3.52
2019-01-19T08:05:06.564Z,-3.43
2019-01-19T08:07:37.767Z,-3.43
2019-01-19T08:10:10.880Z,-3.40
2019-01-19T08:12:42.239Z,-3.29
2019-01-19T08:15:16.298Z,-3.22
2019-01-19T08:17:48.233Z,-3.24
2019-01-19T08:20:19.778Z,-3.17
2019-01-19T08:22:52.095Z,-3.11
2019-01-19T08:25:23.341Z,-3.09
2019-01-19T08:27:54.682Z,-3.14
2019-01-19T08:30:28.238Z,-3.15
2019-01-19T08:33:00.566Z,-3.08
2019-01-19T08:35:32.358Z,-2.89
2019-01-19T08:38:03.761Z,-2.84
2019-01-19T08:40:36.777Z,-2.80
2019-01-19T08:43:14.392Z,-2.71
2019-01-19T08:45:45.784Z,-2.62
2019-01-19T08:48:17.204Z,-2.62
2019-01-19T08:50:48.489Z,-2.67
2019-01-19T08:53:21.908Z,-2.62
2019-01-19T08:55:53.267Z,-2.56
2019-01-19T08:58:24.763Z,-2.55
2019-01-19T09:00:55.927Z,-2.55
2019-01-19T09:03:29.691Z,-2.56
2019-01-19T09:06:00.798Z,-2.60
2019-01-19T09:08:34.258Z,-2.55
2019-01-19T09:11:06.120Z,-2.50
2019-01-19T09:13:37.837Z,-2.48
2019-01-19T09:16:14.303Z,-2.42
2019-01-19T09:18:45.685Z,-2.34
2019-01-19T09:21:16.950Z,-2.22
2019-01-19T09:24:07.256Z,-2.15
2019-01-19T09:26:38.546Z,-2.09
2019-01-19T09:29:10.778Z,-2.00
2019-01-19T09:31:41.914Z,-1.89
2019-01-19T09:34:13.095Z,-1.87
2019-01-19T09:36:45.550Z,-1.77
2019-01-19T09:39:17.065Z,-1.64
2019-01-19T09:41:48.106Z,-1.56
2019-01-19T09:44:19.624Z,-1.52
2019-01-19T09:46:50.906Z,-1.44
2019-01-19T09:49:22.142Z,-1.37
2019-01-19T09:51:53.530Z,-1.31
2019-01-19T09:54:25.398Z,-1.22
2019-01-19T09:56:56.769Z,-1.28
2019-01-19T09:59:27.939Z,-1.31
2019-01-19T10:01:59.225Z,-1.25
2019-01-19T10:04:31.108Z,-1.26
2019-01-19T10:07:02.340Z,-1.17
2019-01-19T10:09:33.410Z,-1.07
2019-01-19T10:12:06.096Z,-1.05
2019-01-19T10:14:37.815Z,-0.98
2019-01-19T10:17:08.933Z,-0.87
2019-01-19T10:19:40.025Z,-0.83
2019-01-19T10:22:11.130Z,-0.82
2019-01-19T10:24:42.566Z,-0.83
2019-01-19T10:27:13.781Z,-0.75
2019-01-19T10:29:45.024Z,-0.68
2019-01-19T10:32:16.965Z,-0.65
2019-01-19T10:34:48.733Z,-0.54
2019-01-19T10:37:20.065Z,-0.45
2019-01-19T10:39:51.445Z,-0.52
2019-01-19T10:42:22.864Z,-0.42
2019-01-19T10:44:55.351Z,-0.32
2019-01-19T10:47:27.450Z,-0.24
2019-01-19T10:49:58.678Z,-0.17
2019-01-19T10:52:31.134Z,-0.29
2019-01-19T10:55:02.536Z,-0.18
2019-01-19T10:57:33.547Z,-0.07
2019-01-19T11:00:06.459Z,-0.42
2019-01-19T11:02:37.775Z,-0.35
2019-01-19T11:05:11.214Z,-0.29
2019-01-19T11:07:44.296Z,-0.41
2019-01-19T11:10:20.686Z,-0.28
2019-01-19T11:12:51.873Z,-0.13
2019-01-19T11:15:23.572Z,-0.08
2019-01-19T11:17:54.913Z,-0.01
2019-01-19T11:20:27.741Z,0.12
2019-01-19T11:23:00.221Z,0.19
2019-01-19T11:25:31.758Z,0.27
2019-01-19T11:28:04.018Z,0.36
2019-01-19T11:30:35.187Z,0.29
2019-01-19T11:33:06.434Z,0.39
2019-01-19T11:35:38.510Z,0.47
2019-01-19T11:38:12.124Z,0.41
2019-01-19T11:40:42.661Z,0.43
2019-01-19T11:43:14.021Z,0.54
2019-01-19T11:45:46.202Z,0.50
2019-01-19T11:48:17.334Z,0.58
2019-01-19T11:50:48.538Z,0.66
2019-01-19T11:53:19.939Z,0.74
2019-01-19T11:55:51.177Z,0.74
2019-01-19T11:58:23.595Z,0.74
2019-01-19T12:00:55.054Z,0.76
2019-01-19T12:03:26.521Z,0.95
2019-01-19T12:05:57.749Z,0.85
2019-01-19T12:08:30.664Z,1.02
2019-01-19T12:11:02.024Z,1.30
2019-01-19T12:13:33.134Z,2.54
2019-01-19T12:16:05.087Z,3.98
2019-01-19T12:18:36.461Z,4.91
2019-01-19T12:21:07.556Z,5.53
2019-01-19T12:23:38.980Z,5.54
2019-01-19T12:26:10.170Z,5.57
2019-01-19T12:28:41.462Z,6.08
2019-01-19T12:31:14.038Z,6.57
2019-01-19T12:33:45.243Z,6.92
2019-01-19T12:36:16.501Z,6.93
2019-01-19T12:38:47.799Z,7.30
2019-01-19T12:41:19.031Z,6.99
2019-01-19T12:43:50.588Z,6.60
2019-01-19T12:46:22.311Z,5.72
2019-01-19T12:48:53.394Z,5.51
2019-01-19T12:51:24.807Z,4.89
2019-01-19T12:53:55.871Z,4.44
2019-01-19T12:56:27.061Z,3.81
2019-01-19T12:58:58.443Z,4.24
2019-01-19T13:01:29.959Z,4.24
2019-01-19T13:04:01.264Z,2.75
2019-01-19T13:06:49.798Z,2.17
2019-01-19T13:09:24.376Z,1.96
2019-01-19T13:12:25.755Z,2.14
2019-01-19T13:15:23.834Z,2.19
2019-01-19T13:18:33.004Z,2.46
2019-01-19T13:21:36.893Z,2.67
2019-01-19T13:25:13.244Z,2.76
2019-01-19T13:28:38.789Z,3.18
2019-01-19T13:31:41.241Z,3.56
2019-01-19T13:34:49.496Z,3.56
2019-01-19T13:37:43.475Z,3.53
2019-01-19T13:40:47.348Z,3.72
2019-01-19T13:44:05.024Z,3.84
2019-01-19T13:47:06.876Z,3.74
2019-01-19T13:50:14.941Z,3.76
2019-01-19T13:53:10.754Z,3.74
2019-01-19T13:56:06.954Z,3.40
2019-01-19T13:58:47.734Z,3.46
2019-01-19T14:01:53.212Z,3.67
2019-01-19T14:05:05.328Z,3.66
2019-01-19T14:08:27.554Z,3.63
2019-01-19T14:11:51.252Z,3.60
2019-01-19T14:15:06.386Z,3.84
2019-01-19T14:18:21.557Z,3.62
2019-01-19T14:21:31.812Z,3.53
2019-01-19T14:24:58.820Z,3.57
2019-01-19T14:27:47.782Z,3.44
2019-01-19T14:30:39.389Z,3.36
2019-01-19T14:34:03.521Z,3.33
2019-01-19T14:37:15.647Z,3.00
2019-01-19T14:40:43.801Z,2.82
2019-01-19T14:43:55.051Z,2.45
2019-01-19T14:47:02.022Z,2.27
2019-01-19T14:49:58.198Z,2.30
2019-01-19T14:53:04.777Z,2.09
2019-01-19T14:56:26.350Z,1.86
2019-01-19T14:59:44.492Z,1.82
2019-01-19T15:02:47.194Z,1.60
2019-01-19T15:05:55.691Z,1.49
2019-01-19T15:08:46.815Z,1.25
2019-01-19T15:11:54.434Z,1.08
2019-01-19T15:14:51.401Z,0.90
2019-01-19T15:17:51.939Z,0.76
2019-01-19T15:21:08.861Z,0.65
2019-01-19T15:24:20.834Z,0.52
2019-01-19T15:27:28.894Z,0.28
2019-01-19T15:30:39.991Z,0.09
2019-01-19T15:33:44.686Z,0.00
2019-01-19T15:36:54.807Z,-0.23
2019-01-19T15:40:00.649Z,-0.40
2019-01-19T15:42:57.745Z,-0.40
2019-01-19T15:45:57.407Z,-0.52
2019-01-19T15:48:58.715Z,-0.64
2019-01-19T15:52:19.767Z,-0.71
2019-01-19T15:55:49.911Z,-0.87
2019-01-19T15:58:52.409Z,-0.90
2019-01-19T16:02:07.004Z,-0.98
2019-01-19T16:05:09.156Z,-1.09
2019-01-19T16:08:09.007Z,-1.12
2019-01-19T16:11:06.090Z,-1.17
2019-01-19T16:14:19.715Z,-1.25
2019-01-19T16:17:25.254Z,-1.34
2019-01-19T16:20:33.145Z,-1.45
2019-01-19T16:23:36.784Z,-1.50
2019-01-19T16:26:25.046Z,-1.52
2019-01-19T16:29:29.459Z,-1.58
2019-01-19T16:32:40.863Z,-1.63
2019-01-19T16:35:50.377Z,-1.72
2019-01-19T16:39:00.697Z,-1.78
2019-01-19T16:42:00.783Z,-1.83
2019-01-19T16:45:28.037Z,-1.92
2019-01-19T16:48:39.915Z,-1.96
2019-01-19T16:52:00.717Z,-2.05
2019-01-19T16:55:07.599Z,-2.12
2019-01-19T16:58:26.034Z,-2.24
2019-01-19T17:01:31.613Z,-2.24
2019-01-19T17:04:48.344Z,-2.28
2019-01-19T17:07:31.912Z,-2.28
2019-01-19T17:10:22.412Z,-2.35
2019-01-19T17:13:31.245Z,-2.40
2019-01-19T17:16:51.822Z,-2.42
2019-01-19T17:20:09.925Z,-2.43
2019-01-19T17:22:59.299Z,-2.51
2019-01-19T17:26:35.681Z,-2.54
2019-01-19T17:29:35.253Z,-2.58
2019-01-19T17:32:29.553Z,-2.63
2019-01-19T17:35:43.146Z,-2.67
2019-01-19T17:38:54.556Z,-2.68
2019-01-19T17:41:53.499Z,-2.69
2019-01-19T17:44:59.617Z,-2.77
2019-01-19T17:48:02.491Z,-2.71
2019-01-19T17:51:11.208Z,-2.73
2019-01-19T17:54:29.157Z,-2.76
2019-01-19T17:57:34.470Z,-2.79
2019-01-19T18:00:36.297Z,-2.83
2019-01-19T18:03:42.193Z,-2.87
2019-01-19T18:06:35.368Z,-2.94
2019-01-19T18:09:59.286Z,-2.92
2019-01-19T18:13:06.899Z,-2.95
2019-01-19T18:16:09.235Z,-3.01
2019-01-19T18:19:16.699Z,-3.01
2019-01-19T18:22:50.236Z,-3.05
2019-01-19T18:25:51.976Z,-3.09
2019-01-19T18:28:46.288Z,-3.14
2019-01-19T18:31:57.196Z,-3.20
2019-01-19T18:34:58.739Z,-3.21
2019-01-19T18:38:05.873Z,-3.21
2019-01-19T18:41:09.480Z,-3.21
2019-01-19T18:44:13.859Z,-3.29
2019-01-19T18:47:15.379Z,-3.35
2019-01-19T18:50:12.073Z,-3.34
2019-01-19T18:53:09.149Z,-3.41
2019-01-19T18:56:14.548Z,-3.43
2019-01-19T18:59:28.839Z,-3.48
2019-01-19T19:02:30.937Z,-3.47
2019-01-19T19:05:18.992Z,-3.49
2019-01-19T19:08:10.803Z,-3.52
2019-01-19T19:11:31.584Z,-3.52
2019-01-19T19:14:30.236Z,-3.56
2019-01-19T19:18:00.206Z,-3.60
2019-01-19T19:21:02.617Z,-3.63
2019-01-19T19:24:26.611Z,-3.67
2019-01-19T19:27:41.027Z,-3.69
2019-01-19T19:30:47.957Z,-3.72
2019-01-19T19:33:55.998Z,-3.79
2019-01-19T19:37:23.512Z,-3.81
2019-01-19T19:40:20.755Z,-3.85
2019-01-19T19:43:13.854Z,-3.86
2019-01-19T19:46:20.901Z,-3.89
2019-01-19T19:49:28.927Z,-3.87
2019-01-19T19:52:07.155Z,-3.88
2019-01-19T19:54:38.271Z,-3.92
2019-01-19T19:57:09.493Z,-3.94
2019-01-19T19:59:40.615Z,-3.96
2019-01-19T20:02:11.893Z,-3.98
2019-01-19T20:04:43.484Z,-4.02
2019-01-19T20:07:14.918Z,-4.07
2019-01-19T20:09:46.201Z,-4.04
2019-01-19T20:12:17.706Z,-4.08
2019-01-19T20:14:49.040Z,-4.10
2019-01-19T20:17:20.241Z,-4.12
2019-01-19T20:19:53.270Z,-4.17
2019-01-19T20:22:25.053Z,-4.19
2019-01-19T20:24:56.219Z,-4.20
2019-01-19T20:27:27.527Z,-4.23
2019-01-19T20:29:58.866Z,-4.27
2019-01-19T20:32:30.190Z,-4.30
2019-01-19T20:35:01.722Z,-4.33
2019-01-19T20:37:32.826Z,-4.33
2019-01-19T20:40:04.551Z,-4.34
2019-01-19T20:42:35.847Z,-4.33
2019-01-19T20:45:10.045Z,-4.34
2019-01-19T20:47:41.392Z,-4.33
2019-01-19T20:50:12.792Z,-4.36
2019-01-19T20:52:45.292Z,-4.37
2019-01-19T20:55:16.581Z,-4.39
2019-01-19T20:57:47.848Z,-4.42
2019-01-19T21:00:19.575Z,-4.37
2019-01-19T21:02:50.723Z,-4.41
2019-01-19T21:05:22.335Z,-4.42
2019-01-19T21:07:53.547Z,-4.46
2019-01-19T21:10:31.521Z,-4.48
2019-01-19T21:12:57.934Z,-4.51
2019-01-19T21:15:29.135Z,-4.54
2019-01-19T21:18:00.384Z,-4.57
2019-01-19T21:20:31.703Z,-4.58
2019-01-19T21:23:03.268Z,-4.60
2019-01-19T21:25:35.551Z,-4.62
2019-01-19T21:28:06.597Z,-4.62
2019-01-19T21:30:37.868Z,-4.66
2019-01-19T21:33:10.054Z,-4.66
2019-01-19T21:35:43.106Z,-4.68
2019-01-19T21:38:14.526Z,-4.68
2019-01-19T21:40:45.614Z,-4.70
2019-01-19T21:43:17.295Z,-4.76
2019-01-19T21:45:48.704Z,-4.79
2019-01-19T21:48:19.955Z,-4.80
2019-01-19T21:50:51.288Z,-4.83
2019-01-19T21:53:22.522Z,-4.82
2019-01-19T21:55:54.206Z,-4.86
2019-01-19T21:58:25.209Z,-4.92
2019-01-19T22:00:57.797Z,-4.96
2019-01-19T22:03:28.857Z,-4.96
2019-01-19T22:06:00.378Z,-4.99
2019-01-19T22:08:33.911Z,-5.00
2019-01-19T22:11:07.658Z,-5.00
2019-01-19T22:13:39.625Z,-5.07
2019-01-19T22:16:11.505Z,-5.05
2019-01-19T22:18:42.881Z,-5.08
2019-01-19T22:21:15.507Z,-5.07
2019-01-19T22:23:46.633Z,-5.08
2019-01-19T22:26:20.486Z,-5.13
2019-01-19T22:28:52.081Z,-5.15
2019-01-19T22:31:23.369Z,-5.17
2019-01-19T22:33:54.493Z,-5.21
2019-01-19T22:36:26.117Z,-5.23
2019-01-19T22:38:57.407Z,-5.22
2019-01-19T22:41:28.769Z,-5.25
2019-01-19T22:44:00.412Z,-5.26
2019-01-19T22:46:31.887Z,-5.25
2019-01-19T22:49:03.717Z,-5.27
2019-01-19T22:51:36.048Z,-5.25
2019-01-19T22:54:07.229Z,-5.27
2019-01-19T22:56:38.768Z,-5.25
2019-01-19T22:59:09.960Z,-5.25
2019-01-19T23:02:01.685Z,-5.25
2019-01-19T23:04:33.202Z,-5.24
2019-01-19T23:07:06.290Z,-5.23
2019-01-19T23:09:37.303Z,-5.21
2019-01-19T23:12:08.704Z,-5.19
2019-01-19T23:14:40.938Z,-5.23
2019-01-19T23:17:12.387Z,-5.23
2019-01-19T23:19:43.703Z,-5.23
2019-01-19T23:22:14.963Z,-5.26
2019-01-19T23:24:46.061Z,-5.29
2019-01-19T23:27:17.292Z,-5.30
2019-01-19T23:29:50.162Z,-5.28
2019-01-19T23:32:22.136Z,-5.27
2019-01-19T23:34:54.300Z,-5.28
2019-01-19T23:37:25.783Z,-5.29
2019-01-19T23:39:58.016Z,-5.30
2019-01-19T23:42:29.075Z,-5.30
2019-01-19T23:45:00.256Z,-5.31
2019-01-19T23:47:31.385Z,-5.32
2019-01-19T23:50:02.659Z,-5.31
2019-01-19T23:52:34.448Z,-5.30
2019-01-19T23:55:06.353Z,-5.28
2019-01-19T23:57:38.861Z,-5.28
